METAR Data
IDs: Format: Raw Decoded Include TAF

Data at: 0821 UTC 25 Apr 2019

KTCC 250753Z AUTO 26005KT 10SM CLR 11/06 A2989 RMK AO2 SLP081 T01060061
KTCC 250653Z AUTO 25006KT 10SM CLR 12/06 A2990 RMK AO2 SLP085 T01220061 402390017
KTCC 250553Z AUTO 22007KT 10SM CLR 12/06 A2990 RMK AO2 SLP088 T01220056 10233 20111 51005
KTCC 250453Z AUTO 24004KT 10SM CLR 13/06 A2989 RMK AO2 SLP087 T01330056
KTCC 250353Z AUTO 21006KT 10SM CLR 14/05 A2990 RMK AO2 SLP090 T01390050
KTCC 250253Z AUTO 00000KT 10SM CLR 17/03 A2989 RMK AO2 SLP084 T01720033 53009
KTCC 250153Z AUTO 00000KT 10SM CLR 18/04 A2987 RMK AO2 SLP081 T01830039
KTCC 250053Z AUTO 00000KT 10SM CLR 22/04 A2986 RMK AO2 SLP079 T02170044
KTCC 242353Z AUTO 10004KT 10SM CLR 23/03 A2986 RMK AO2 SLP077 T02330033 10239 20178 56013
KTCC 242253Z AUTO VRB04KT 10SM CLR 23/04 A2985 RMK AO2 SLP075 T02330039
KTCC 242153Z AUTO VRB04KT 10SM CLR 23/04 A2986 RMK AO2 SLP082 T02280044
KTCC 242053Z AUTO 11005KT 10SM CLR 23/04 A2990 RMK AO2 SLP092 T02280044 58017
KTCC 241953Z AUTO VRB03KT 10SM CLR 21/06 A2992 RMK AO2 SLP101 T02060056
KTCC 241853Z AUTO 23009KT 10SM CLR 20/08 A2993 RMK AO2 SLP105 T02000078
KTCC 241753Z AUTO 22008KT 190V250 10SM CLR 18/07 A2995 RMK AO2 SLP116 T01780072 10178 20017 58015
KTCC 241653Z AUTO 26005KT 10SM SCT026 16/08 A2998 RMK AO2 SLP128 T01560078
KTCC 241553Z AUTO 25006KT 10SM CLR 14/08 A2998 RMK AO2 SLP130 T01390078
KTCC 241453Z AUTO 26008KT 10SM CLR 12/08 A3000 RMK AO2 SLP137 T01170078 52003
KTCC 241353Z AUTO 23007KT 10SM CLR 09/07 A3000 RMK AO2 SLP135 T00940067
KTCC 241253Z AUTO 00000KT 7SM CLR 04/04 A2999 RMK AO2 SLP139 T00440039
KTCC 241153Z AUTO 00000KT 9SM FEW030 03/01 A2999 RMK AO2 SLP139 T00280011 10061 20022 53002
KTCC 241053Z AUTO 21003KT 6SM BR CLR 04/03 A2998 RMK AO2 SLP135 T00390033
KTCC 241024Z AUTO 20005KT 3SM BR CLR 03/02 A2998 RMK AO2 T00330022
KTCC 241011Z AUTO 18007KT 1 3/4SM BR CLR 03/02 A2999 RMK AO2 T00280017
KTCC 240953Z AUTO 17006KT 9SM CLR 03/02 A2998 RMK AO2 SLP135 T00280017
KTCC 240853Z AUTO 00000KT 10SM CLR 03/02 A2998 RMK AO2 SLP135 T00330022 58022
KTCC 240753Z AUTO 29005KT 10SM CLR 06/04 A3001 RMK AO2 SLP143 T00560044
KTCC 240653Z AUTO 00000KT 10SM CLR 06/04 A3004 RMK AO2 SLP152 T00560039 401560056
KTCC 240553Z AUTO 17005KT 10SM CLR 06/04 A3006 RMK AO2 SLP158 T00560039 10144 20056 55002
KTCC 240453Z AUTO 00000KT 10SM CLR 07/05 A3005 RMK AO2 SLP157 T00670050
KTCC 240353Z AUTO 04005KT 10SM CLR 07/05 A3005 RMK AO2 SLP156 T00720050
KTCC 240253Z AUTO 00000KT 10SM CLR 09/06 A3006 RMK AO2 SLP160 T00940061 55001
KTCC 240153Z AUTO 10003KT 10SM OVC040 11/07 A3005 RMK AO2 SLP153 T01110067
KTCC 240053Z AUTO 08005KT 10SM OVC042 13/07 A3006 RMK AO2 SLP153 T01330067
KTCC 232353Z AUTO 06008KT 10SM SCT033 OVC043 14/06 A3007 RMK AO2 SLP154 T01390061 10156 20133 56008
KTCC 232253Z AUTO 05010KT 10SM OVC036 14/06 A3008 RMK AO2 SLP159 T01390056
KTCC 232153Z AUTO 07008G16KT 10SM OVC036 14/06 A3008 RMK AO2 SLP156 T01440056
KTCC 232053Z AUTO 03009KT 10SM OVC031 14/06 A3009 RMK AO2 SLP162 T01390061 56011